Time;durP1;ratioP1;P1;durP2;ratioP2;P2;SDS_P1;SDS_P2;PMS_P1;PMS_P2;Temp;Humidity;BMP_temperature;BMP_pressure;BME280_temperature;BME280_humidity;BME280_pressure;Samples;Min_cycle;Max_cycle;Signal;HPM_P1;HPM_P2
2022/07/03 00:00:07;;;;;;;22.95;18.42;;;15.90;94.30;;;;;;5085013;28;20234;-88
2022/07/03 00:02:46;;;;;;;19.63;16.80;;;15.90;94.00;;;;;;5100368;28;20641;-88
2022/07/03 00:05:41;;;;;;;20.95;16.80;;;16.00;94.10;;;;;;5102185;28;20625;-90
2022/07/03 00:08:08;;;;;;;8.98;6.70;;;16.00;94.30;;;;;;5082708;28;20201;-88
2022/07/03 00:10:40;;;;;;;13.15;11.25;;;16.00;94.00;;;;;;5093755;28;20232;-87
2022/07/03 00:13:10;;;;;;;14.40;11.55;;;16.00;94.00;;;;;;5093699;28;20196;-87
2022/07/03 00:15:46;;;;;;;7.15;5.82;;;16.10;93.90;;;;;;5096280;28;20200;-87
2022/07/03 00:18:16;;;;;;;9.93;5.93;;;16.10;93.90;;;;;;5090694;28;20231;-88
2022/07/03 00:20:48;;;;;;;5.53;4.72;;;16.10;94.00;;;;;;5096933;28;20189;-87
2022/07/03 00:23:40;;;;;;;8.35;4.55;;;16.10;93.90;;;;;;5098329;28;20251;-87
2022/07/03 00:26:08;;;;;;;7.30;4.90;;;16.00;94.00;;;;;;5091456;28;20381;-87
2022/07/03 00:28:41;;;;;;;6.70;4.43;;;16.00;94.00;;;;;;5086984;28;20563;-87
2022/07/03 00:31:10;;;;;;;10.63;8.00;;;16.00;94.30;;;;;;5098574;28;20208;-87
2022/07/03 00:33:37;;;;;;;7.07;6.15;;;16.10;94.30;;;;;;5091266;28;20696;-87
2022/07/03 00:36:13;;;;;;;5.93;5.00;;;16.30;93.90;;;;;;5100007;28;20204;-87
2022/07/03 00:38:40;;;;;;;4.68;3.67;;;16.30;93.70;;;;;;5094115;28;20570;-87
2022/07/03 00:41:08;;;;;;;5.78;3.60;;;16.20;93.50;;;;;;5087931;28;20432;-87
2022/07/03 00:43:35;;;;;;;6.00;3.75;;;16.20;93.80;;;;;;5096131;28;20193;-87
2022/07/03 00:46:08;;;;;;;6.25;3.67;;;16.20;94.00;;;;;;5099538;28;20193;-87
2022/07/03 00:48:42;;;;;;;7.57;6.80;;;16.20;93.70;;;;;;5095070;28;20205;-87
2022/07/03 00:51:14;;;;;;;8.88;7.05;;;16.20;93.70;;;;;;5097986;28;20273;-87
2022/07/03 00:53:43;;;;;;;8.63;7.15;;;16.40;93.70;;;;;;5096655;28;20193;-87
2022/07/03 00:56:41;;;;;;;7.70;6.05;;;16.50;93.20;;;;;;5103603;28;20671;-87
2022/07/03 00:59:08;;;;;;;6.63;5.03;;;16.70;92.40;;;;;;5102392;28;20215;-87
2022/07/03 01:01:46;;;;;;;4.30;3.38;;;16.70;92.70;;;;;;5099743;28;20199;-87
2022/07/03 01:04:29;;;;;;;4.60;3.00;;;16.60;92.10;;;;;;5095946;28;20564;-87
2022/07/03 01:07:01;;;;;;;6.93;3.90;;;16.50;92.20;;;;;;5102406;28;20262;-88
2022/07/03 01:10:01;;;;;;;7.57;6.78;;;16.40;92.70;;;;;;5091878;28;20197;-87
2022/07/03 01:12:39;;;;;;;11.55;8.05;;;16.50;92.90;;;;;;5098036;28;20197;-87
2022/07/03 01:15:13;;;;;;;8.48;4.97;;;16.60;92.80;;;;;;5099858;28;20189;-87
2022/07/03 01:17:55;;;;;;;6.68;4.45;;;16.80;92.30;;;;;;5096563;28;20215;-87
2022/07/03 01:21:04;;;;;;;4.38;3.47;;;16.80;91.90;;;;;;5097772;28;20197;-87
2022/07/03 01:24:07;;;;;;;4.93;3.85;;;16.70;92.50;;;;;;5099318;28;20206;-87
2022/07/03 01:26:40;;;;;;;4.25;3.20;;;16.50;92.90;;;;;;5095072;28;20197;-87
2022/07/03 01:29:23;;;;;;;6.32;3.75;;;16.40;92.70;;;;;;5092607;28;20585;-88
2022/07/03 01:31:50;;;;;;;3.90;3.05;;;16.20;93.50;;;;;;5092414;28;20196;-87
2022/07/03 01:34:35;;;;;;;7.43;5.90;;;16.10;94.00;;;;;;5101428;28;20201;-87
2022/07/03 01:37:05;;;;;;;6.10;4.65;;;16.00;94.60;;;;;;5096638;28;20215;-87
2022/07/03 01:39:49;;;;;;;5.70;3.05;;;16.00;94.80;;;;;;5094760;28;20184;-87
2022/07/03 01:42:25;;;;;;;3.60;3.08;;;16.00;94.80;;;;;;5102555;28;20215;-87
2022/07/03 01:44:54;;;;;;;6.15;3.83;;;16.00;94.90;;;;;;5088641;28;20217;-87
2022/07/03 01:47:24;;;;;;;4.10;3.25;;;16.00;94.90;;;;;;5089993;28;20649;-87
2022/07/03 01:49:52;;;;;;;4.50;4.10;;;16.20;94.30;;;;;;5094750;28;20194;-87
2022/07/03 01:52:21;;;;;;;7.18;4.70;;;16.30;94.10;;;;;;5099659;28;20212;-87
2022/07/03 01:54:53;;;;;;;6.40;3.17;;;16.40;93.90;;;;;;5096298;28;20562;-87
2022/07/03 01:57:38;;;;;;;3.78;3.20;;;16.40;93.80;;;;;;5094618;28;20211;-87
2022/07/03 02:00:11;;;;;;;4.18;2.90;;;16.40;93.40;;;;;;5083406;28;20203;-87
2022/07/03 02:02:44;;;;;;;5.60;3.15;;;16.50;93.60;;;;;;5091318;28;20193;-87
2022/07/03 02:05:22;;;;;;;4.43;3.33;;;16.40;93.30;;;;;;5088823;28;20196;-87
2022/07/03 02:08:01;;;;;;;5.10;4.60;;;16.30;93.50;;;;;;5091863;28;20210;-87
2022/07/03 02:10:34;;;;;;;4.15;3.75;;;16.40;93.90;;;;;;5095695;28;20197;-87
2022/07/03 02:13:09;;;;;;;4.25;3.38;;;16.30;94.10;;;;;;5097611;28;20200;-88
2022/07/03 02:15:44;;;;;;;3.97;2.67;;;16.20;94.20;;;;;;5097208;28;20235;-88
2022/07/03 02:18:28;;;;;;;3.15;2.60;;;16.10;93.90;;;;;;5095567;28;20212;-87
2022/07/03 02:21:15;;;;;;;3.92;3.05;;;15.90;94.60;;;;;;5090524;28;20644;-87
2022/07/03 02:23:54;;;;;;;5.22;3.58;;;15.90;94.80;;;;;;5089762;28;20200;-88
2022/07/03 02:26:30;;;;;;;2.58;2.38;;;15.80;95.10;;;;;;5088396;28;20195;-88
2022/07/03 02:29:08;;;;;;;4.53;2.38;;;15.80;95.20;;;;;;5099542;28;20210;-87
2022/07/03 02:32:15;;;;;;;3.42;2.80;;;15.60;95.50;;;;;;5089664;28;20192;-87
2022/07/03 02:35:05;;;;;;;3.13;2.85;;;15.50;96.00;;;;;;5097622;28;20271;-88
2022/07/03 02:37:39;;;;;;;3.35;3.03;;;15.50;96.30;;;;;;5091832;28;20201;-88
2022/07/03 02:40:10;;;;;;;3.40;2.75;;;15.50;96.50;;;;;;5099489;28;20204;-87
2022/07/03 02:42:48;;;;;;;3.35;2.65;;;15.50;96.60;;;;;;5097178;28;20212;-87
2022/07/03 02:45:20;;;;;;;4.30;2.90;;;15.60;96.70;;;;;;5091407;28;20184;-87
2022/07/03 02:47:58;;;;;;;2.90;2.70;;;15.60;96.70;;;;;;5090621;28;21489;-87
2022/07/03 02:50:46;;;;;;;3.33;3.03;;;15.60;96.60;;;;;;5096376;28;20204;-87
2022/07/03 02:53:25;;;;;;;3.25;2.70;;;15.60;97.00;;;;;;5095143;28;20211;-90
2022/07/03 02:55:59;;;;;;;2.92;2.67;;;15.70;96.70;;;;;;5098191;28;20231;-87
2022/07/03 02:58:50;;;;;;;7.75;3.60;;;15.80;96.80;;;;;;5100545;28;20697;-87
2022/07/03 03:01:29;;;;;;;2.90;2.70;;;15.90;96.50;;;;;;5090502;28;20197;-87
2022/07/03 03:04:45;;;;;;;5.03;3.42;;;15.80;96.30;;;;;;5098472;28;20210;-88
2022/07/03 03:07:16;;;;;;;6.00;2.60;;;15.90;96.30;;;;;;5099518;28;20199;-87
2022/07/03 03:09:48;;;;;;;2.70;2.50;;;16.00;95.90;;;;;;5096034;28;20219;-87
2022/07/03 03:12:20;;;;;;;3.40;3.10;;;16.00;95.90;;;;;;5090355;28;20205;-87
2022/07/03 03:15:00;;;;;;;4.28;2.80;;;15.90;96.40;;;;;;5091540;28;20219;-87
2022/07/03 03:17:36;;;;;;;4.20;3.05;;;15.80;96.20;;;;;;5091536;28;20196;-87
2022/07/03 03:20:05;;;;;;;2.78;2.53;;;15.80;96.20;;;;;;5096428;28;20204;-90
2022/07/03 03:23:03;;;;;;;2.60;2.40;;;15.70;95.80;;;;;;5082393;28;20195;-88
2022/07/03 03:25:34;;;;;;;4.07;2.55;;;15.50;96.10;;;;;;5087696;28;20196;-90
2022/07/03 03:28:01;;;;;;;4.38;2.50;;;15.40;96.60;;;;;;5075182;28;20279;-90
2022/07/03 03:30:36;;;;;;;2.88;2.67;;;15.30;97.00;;;;;;5086168;28;20201;-88
2022/07/03 03:33:12;;;;;;;3.47;2.63;;;15.20;96.90;;;;;;5088628;28;20199;-90
2022/07/03 03:35:46;;;;;;;3.90;2.53;;;15.10;97.30;;;;;;5086334;28;20656;-90
2022/07/03 03:38:13;;;;;;;3.38;3.08;;;15.10;97.70;;;;;;5089715;28;20212;-90
2022/07/03 03:40:40;;;;;;;4.03;3.22;;;15.10;98.20;;;;;;5092204;28;20196;-87
2022/07/03 03:43:10;;;;;;;3.88;3.47;;;15.20;98.40;;;;;;5093002;28;20275;-87
2022/07/03 03:45:37;;;;;;;2.97;2.63;;;15.30;98.50;;;;;;5088233;28;20201;-87
2022/07/03 03:48:11;;;;;;;3.28;2.97;;;15.50;97.90;;;;;;5083553;28;20203;-87
2022/07/03 03:50:38;;;;;;;5.53;2.88;;;15.70;97.60;;;;;;5091302;28;20199;-87
2022/07/03 03:53:11;;;;;;;4.07;3.10;;;15.70;97.50;;;;;;5097043;28;20239;-88
2022/07/03 03:56:01;;;;;;;4.05;3.00;;;15.70;97.10;;;;;;5091057;28;20541;-87
2022/07/03 03:58:46;;;;;;;3.03;2.80;;;15.80;97.20;;;;;;5090912;28;20304;-87
2022/07/03 04:01:13;;;;;;;3.50;2.90;;;15.90;97.40;;;;;;5092083;28;20192;-87
2022/07/03 04:03:48;;;;;;;2.92;2.72;;;15.90;97.10;;;;;;5096594;28;20195;-87
2022/07/03 04:06:16;;;;;;;2.72;2.53;;;16.00;97.10;;;;;;5093963;28;20196;-87
2022/07/03 04:08:58;;;;;;;3.13;2.83;;;16.00;97.10;;;;;;5095313;28;22470;-88
2022/07/03 04:11:25;;;;;;;4.47;2.90;;;16.00;97.10;;;;;;5096955;28;20192;-88
2022/07/03 04:13:52;;;;;;;3.53;2.63;;;16.00;97.20;;;;;;5092595;28;20225;-88
2022/07/03 04:16:19;;;;;;;4.90;2.90;;;16.00;97.10;;;;;;5097883;28;20662;-87
2022/07/03 04:18:53;;;;;;;4.80;2.83;;;16.00;97.10;;;;;;5089226;28;20210;-87
2022/07/03 04:21:22;;;;;;;6.40;2.95;;;16.00;97.00;;;;;;5084141;28;20660;-90
2022/07/03 04:23:52;;;;;;;5.63;2.92;;;15.90;97.10;;;;;;5089801;28;20188;-90
2022/07/03 04:26:28;;;;;;;2.90;2.60;;;15.80;97.10;;;;;;5092182;28;20197;-87
2022/07/03 04:28:55;;;;;;;3.30;2.70;;;15.80;97.20;;;;;;5099584;28;20196;-87
2022/07/03 04:31:22;;;;;;;5.13;2.75;;;15.90;97.20;;;;;;5100033;28;20869;-87
2022/07/03 04:34:05;;;;;;;3.72;2.58;;;16.00;97.20;;;;;;5102921;28;20208;-87
2022/07/03 04:36:34;;;;;;;3.35;2.40;;;15.90;97.10;;;;;;5097522;28;20723;-87
2022/07/03 04:39:04;;;;;;;3.75;2.88;;;15.90;97.10;;;;;;5101176;28;20221;-87
2022/07/03 04:41:40;;;;;;;3.00;2.35;;;16.00;97.50;;;;;;5102207;28;20220;-88
2022/07/03 04:44:07;;;;;;;4.85;2.60;;;16.00;97.10;;;;;;5096701;28;20222;-87
2022/07/03 04:46:35;;;;;;;3.13;2.83;;;16.10;97.40;;;;;;5105134;28;20203;-87
2022/07/03 04:49:11;;;;;;;3.17;2.88;;;16.20;97.20;;;;;;5102756;28;20198;-87
2022/07/03 04:51:38;;;;;;;2.80;2.60;;;16.30;97.20;;;;;;5102169;28;20208;-87
2022/07/03 04:54:05;;;;;;;2.95;2.65;;;16.40;97.20;;;;;;5101318;28;20651;-87
2022/07/03 04:56:32;;;;;;;2.40;2.20;;;16.50;97.30;;;;;;5103364;28;20210;-87
2022/07/03 04:59:04;;;;;;;4.15;2.78;;;16.60;97.30;;;;;;5101535;28;20212;-87
2022/07/03 05:02:13;;;;;;;6.18;2.15;;;16.60;97.30;;;;;;5097973;28;20199;-87
2022/07/03 05:05:21;;;;;;;2.58;2.38;;;16.80;97.10;;;;;;5096392;28;20256;-87
2022/07/03 05:07:49;;;;;;;3.60;2.45;;;17.00;96.40;;;;;;5103560;28;20268;-87
2022/07/03 05:10:16;;;;;;;3.22;2.30;;;17.10;96.10;;;;;;5097790;28;20197;-87
2022/07/03 05:12:58;;;;;;;2.92;2.30;;;17.20;96.00;;;;;;5101120;28;20237;-87
2022/07/03 05:15:34;;;;;;;2.35;2.17;;;17.30;95.90;;;;;;5104092;28;20703;-87
2022/07/03 05:18:01;;;;;;;3.47;2.30;;;17.50;95.60;;;;;;5102379;28;20648;-87
2022/07/03 05:21:09;;;;;;;2.40;2.20;;;17.60;95.40;;;;;;5097247;28;20231;-87
2022/07/03 05:23:53;;;;;;;2.55;2.35;;;17.60;95.20;;;;;;5094724;28;20196;-87
2022/07/03 05:26:22;;;;;;;2.40;2.20;;;17.70;95.10;;;;;;5099122;28;20198;-87
2022/07/03 05:28:49;;;;;;;4.35;2.30;;;17.80;95.10;;;;;;5088044;28;20196;-88
2022/07/03 05:31:22;;;;;;;2.28;2.08;;;17.90;94.90;;;;;;5094957;28;20193;-88
2022/07/03 05:33:49;;;;;;;2.58;2.10;;;18.20;94.60;;;;;;5095085;28;20203;-88
2022/07/03 05:36:28;;;;;;;2.58;2.17;;;18.40;94.20;;;;;;5096776;28;20200;-88
2022/07/03 05:39:37;;;;;;;2.40;2.20;;;18.40;93.90;;;;;;5098603;28;20212;-88
2022/07/03 05:42:16;;;;;;;3.15;1.98;;;18.50;93.60;;;;;;5099646;28;20224;-88
2022/07/03 05:44:58;;;;;;;2.42;2.10;;;19.00;93.40;;;;;;5095492;28;20330;-88
2022/07/03 05:47:28;;;;;;;3.22;2.08;;;19.80;91.80;;;;;;5096056;28;20605;-85
2022/07/03 05:50:06;;;;;;;2.10;1.90;;;20.40;88.30;;;;;;5093708;28;20205;-87
2022/07/03 05:52:34;;;;;;;2.08;1.88;;;20.90;86.10;;;;;;5088985;28;20283;-86
2022/07/03 05:55:03;;;;;;;2.17;2.00;;;21.70;80.70;;;;;;5083476;28;20577;-86
2022/07/03 05:57:46;;;;;;;2.20;1.90;;;22.60;73.50;;;;;;5093102;28;20205;-86
2022/07/03 06:00:14;;;;;;;3.95;1.92;;;23.00;62.60;;;;;;5094630;28;20292;-86
2022/07/03 06:02:41;;;;;;;1.90;1.80;;;22.80;62.90;;;;;;5096140;28;20197;-87
2022/07/03 06:05:10;;;;;;;2.45;2.10;;;22.50;64.90;;;;;;5093313;28;20227;-87
2022/07/03 06:07:40;;;;;;;2.85;1.98;;;22.10;67.80;;;;;;5084883;28;20193;-87
2022/07/03 06:10:11;;;;;;;2.10;2.00;;;21.80;71.30;;;;;;5093951;28;20299;-87
2022/07/03 06:12:40;;;;;;;3.80;2.10;;;21.40;71.60;;;;;;5091408;28;20188;-87
2022/07/03 06:15:07;;;;;;;1.95;1.83;;;21.30;74.60;;;;;;5088611;28;20203;-87
2022/07/03 06:17:52;;;;;;;3.42;1.85;;;21.00;76.00;;;;;;5095348;28;20203;-87
2022/07/03 06:20:23;;;;;;;2.80;2.58;;;20.80;76.20;;;;;;5094135;28;20285;-87
2022/07/03 06:22:52;;;;;;;2.00;1.90;;;20.80;77.50;;;;;;5094737;28;20196;-87
2022/07/03 06:25:35;;;;;;;1.80;1.67;;;20.70;77.40;;;;;;5084477;28;20185;-87
2022/07/03 06:28:04;;;;;;;2.08;1.80;;;20.70;76.40;;;;;;5093795;28;20187;-86
2022/07/03 06:30:34;;;;;;;3.15;1.95;;;20.80;77.00;;;;;;5089979;28;20188;-87
2022/07/03 06:33:01;;;;;;;1.80;1.70;;;20.80;75.60;;;;;;5092461;28;20731;-87
2022/07/03 06:35:28;;;;;;;3.15;2.85;;;20.80;75.60;;;;;;5093932;28;20207;-87
2022/07/03 06:37:54;;;;;;;2.40;1.98;;;20.80;76.00;;;;;;5087909;28;20648;-87
2022/07/03 06:40:42;;;;;;;4.05;1.85;;;20.90;75.50;;;;;;5092264;28;20299;-87
2022/07/03 06:43:09;;;;;;;4.30;1.80;;;21.00;75.80;;;;;;5093470;28;20203;-87
2022/07/03 06:46:15;;;;;;;3.78;1.90;;;21.00;77.30;;;;;;5110104;28;20221;-87
2022/07/03 06:49:10;;;;;;;1.92;1.83;;;21.20;75.50;;;;;;5086918;28;20632;-88
2022/07/03 06:51:37;;;;;;;3.33;1.90;;;21.20;75.90;;;;;;5095022;28;20234;-87
2022/07/03 06:54:04;;;;;;;3.92;2.00;;;21.30;75.00;;;;;;5091643;28;20189;-88
2022/07/03 06:56:42;;;;;;;1.88;1.77;;;21.50;70.60;;;;;;5087083;28;20201;-87
2022/07/03 06:59:09;;;;;;;1.83;1.73;;;21.60;69.30;;;;;;5101915;28;21282;-88
2022/07/03 07:01:46;;;;;;;1.88;1.75;;;21.70;69.90;;;;;;5095297;28;20189;-85
2022/07/03 07:04:22;;;;;;;2.05;1.80;;;21.80;67.50;;;;;;5102405;28;20201;-85
2022/07/03 07:06:49;;;;;;;1.70;1.60;;;21.90;61.20;;;;;;5103000;28;20188;-85
2022/07/03 07:09:22;;;;;;;1.90;1.60;;;22.00;61.80;;;;;;5103132;28;20200;-85
2022/07/03 07:12:00;;;;;;;2.00;1.80;;;22.10;63.30;;;;;;5101514;28;20203;-86
2022/07/03 07:14:26;;;;;;;2.22;1.90;;;22.50;59.40;;;;;;5102842;28;20203;-85
2022/07/03 07:16:53;;;;;;;2.05;1.92;;;22.80;55.20;;;;;;5103720;28;20211;-85
2022/07/03 07:19:20;;;;;;;2.22;1.70;;;22.90;54.70;;;;;;5105352;28;20239;-85
2022/07/03 07:21:47;;;;;;;1.60;1.50;;;23.10;54.90;;;;;;5100129;28;20218;-85
2022/07/03 07:24:14;;;;;;;3.17;1.80;;;23.40;52.50;;;;;;5098920;28;20640;-85
2022/07/03 07:26:41;;;;;;;2.85;1.90;;;23.80;49.70;;;;;;5093983;28;20196;-83
2022/07/03 07:29:35;;;;;;;1.95;1.80;;;24.20;46.90;;;;;;5102356;28;20211;-83
2022/07/03 07:32:33;;;;;;;2.15;2.00;;;24.30;44.10;;;;;;5096899;28;20197;-83
2022/07/03 07:35:05;;;;;;;1.85;1.75;;;24.70;44.00;;;;;;5100615;28;20195;-83
2022/07/03 07:37:32;;;;;;;2.20;2.00;;;24.80;40.20;;;;;;5087988;28;20282;-83
2022/07/03 07:39:59;;;;;;;2.50;1.80;;;24.80;42.90;;;;;;5100962;28;20287;-83
2022/07/03 07:42:34;;;;;;;2.90;2.10;;;24.70;41.40;;;;;;5099707;28;20221;-83
2022/07/03 07:45:03;;;;;;;2.10;1.90;;;24.50;39.80;;;;;;5098745;28;20206;-85
2022/07/03 07:47:30;;;;;;;1.95;1.75;;;24.30;39.70;;;;;;5095888;28;20192;-86
2022/07/03 07:50:10;;;;;;;5.63;1.80;;;24.20;39.50;;;;;;5093313;28;20195;-86
2022/07/03 07:52:40;;;;;;;3.85;1.92;;;24.10;38.70;;;;;;5105502;28;20218;-86
2022/07/03 07:55:08;;;;;;;1.80;1.70;;;24.10;40.00;;;;;;5090703;28;20185;-86
2022/07/03 07:57:36;;;;;;;2.75;1.70;;;24.10;38.50;;;;;;5093636;28;20215;-86
2022/07/03 08:00:10;;;;;;;2.63;1.95;;;24.20;40.40;;;;;;5089202;28;20221;-86
2022/07/03 08:05:46;;;;;;;2.10;1.90;;;24.50;39.30;;;;;;5030045;28;20191;-83
2022/07/03 08:08:22;;;;;;;2.15;1.90;;;24.80;36.10;;;;;;5023684;28;20225;-83
2022/07/03 08:10:51;;;;;;;2.83;1.70;;;25.00;35.20;;;;;;5023044;28;20217;-82
2022/07/03 08:13:28;;;;;;;3.78;1.90;;;25.00;34.50;;;;;;5025417;28;20191;-91
2022/07/03 08:16:00;;;;;;;2.60;2.40;;;25.00;34.80;;;;;;5024983;28;20195;-84
2022/07/03 08:18:30;;;;;;;3.60;2.47;;;25.10;34.70;;;;;;5028414;28;20187;-84
2022/07/03 08:20:57;;;;;;;14.73;13.13;;;25.10;32.90;;;;;;5027548;28;20755;-85
2022/07/03 08:23:29;;;;;;;2.30;2.08;;;25.60;31.60;;;;;;5010618;28;20206;-87
2022/07/03 08:25:59;;;;;;;2.80;2.55;;;27.40;26.30;;;;;;5029419;28;20209;-86
2022/07/03 08:28:34;;;;;;;2.20;2.03;;;29.80;20.60;;;;;;5027402;28;20206;-89
2022/07/03 08:31:02;;;;;;;2.60;2.40;;;32.50;16.60;;;;;;5028828;28;20198;-87
2022/07/03 08:33:59;;;;;;;3.90;3.60;;;34.40;13.00;;;;;;5029103;28;20200;-88
2022/07/03 08:36:36;;;;;;;3.97;2.25;;;35.10;10.00;;;;;;5022640;28;20237;-88
2022/07/03 08:39:07;;;;;;;3.03;2.83;;;35.90;8.90;;;;;;5036888;28;20196;-88
2022/07/03 08:41:41;;;;;;;3.00;2.80;;;36.80;8.10;;;;;;5079443;28;20220;-88
2022/07/03 08:44:12;;;;;;;2.88;2.67;;;37.60;6.90;;;;;;5086396;28;20219;-88
2022/07/03 08:46:49;;;;;;;4.03;3.40;;;36.80;6.90;;;;;;5082442;28;20189;-88
2022/07/03 08:49:24;;;;;;;4.30;3.90;;;36.60;7.30;;;;;;5077835;28;20197;-89
2022/07/03 08:51:53;;;;;;;3.40;3.20;;;37.00;7.80;;;;;;5081437;28;20663;-88
2022/07/03 08:54:22;;;;;;;3.50;3.20;;;37.60;5.30;;;;;;5086105;28;20287;-89
2022/07/03 08:56:52;;;;;;;3.80;3.53;;;38.10;4.90;;;;;;5081205;28;20583;-89
2022/07/03 08:59:24;;;;;;;4.03;3.70;;;38.50;3.40;;;;;;5077588;28;20208;-88
2022/07/03 09:01:53;;;;;;;5.03;4.65;;;38.90;3.10;;;;;;5081254;28;20204;-88
2022/07/03 09:04:22;;;;;;;4.20;4.00;;;39.40;2.50;;;;;;5079226;28;20651;-87
2022/07/03 09:07:08;;;;;;;4.25;3.95;;;39.20;2.60;;;;;;5081710;28;20208;-87
2022/07/03 09:09:53;;;;;;;4.47;4.18;;;39.10;4.30;;;;;;5081806;28;20645;-89
2022/07/03 09:12:31;;;;;;;5.65;5.25;;;38.30;3.50;;;;;;5087090;28;20672;-88
2022/07/03 09:14:58;;;;;;;4.40;4.10;;;37.60;4.70;;;;;;5081044;28;20198;-88
2022/07/03 09:17:37;;;;;;;4.20;3.90;;;37.90;4.60;;;;;;5082807;28;20200;-88
2022/07/03 09:20:16;;;;;;;5.57;5.07;;;37.50;6.70;;;;;;5083857;28;20203;-88
2022/07/03 09:23:15;;;;;;;4.30;4.10;;;37.50;5.60;;;;;;5082997;28;20203;-88
2022/07/03 09:25:54;;;;;;;5.35;5.05;;;38.20;4.20;;;;;;5084307;28;20202;-88
2022/07/03 09:28:23;;;;;;;4.90;4.55;;;38.80;2.90;;;;;;5081805;28;20193;-88
2022/07/03 09:31:16;;;;;;;4.60;4.40;;;38.80;3.40;;;;;;5087192;28;20204;-88
2022/07/03 09:33:55;;;;;;;4.78;4.57;;;38.20;3.10;;;;;;5084607;28;20200;-88
2022/07/03 09:36:50;;;;;;;5.13;4.60;;;38.40;4.10;;;;;;5086913;28;20188;-88
2022/07/03 09:39:19;;;;;;;4.70;4.40;;;37.20;4.60;;;;;;5045937;28;20225;-88
2022/07/03 09:42:00;;;;;;;4.55;4.35;;;36.20;4.80;;;;;;5042646;28;20230;-89
2022/07/03 09:44:42;;;;;;;5.10;4.80;;;36.80;5.50;;;;;;5046265;28;20197;-89
2022/07/03 09:47:13;;;;;;;5.18;4.95;;;37.50;4.40;;;;;;5036107;28;20205;-88
2022/07/03 09:49:52;;;;;;;5.35;5.00;;;38.50;3.00;;;;;;5039602;28;20199;-88
2022/07/03 09:52:37;;;;;;;4.93;4.60;;;39.00;1.60;;;;;;5037298;28;20211;-88
2022/07/03 09:55:19;;;;;;;4.80;4.50;;;38.60;1.40;;;;;;5045367;28;20197;-88
2022/07/03 09:58:01;;;;;;;5.20;4.90;;;37.90;1.00;;;;;;5038288;28;20244;-88
2022/07/03 10:00:29;;;;;;;5.20;4.80;;;38.40;1.70;;;;;;5044744;28;20202;-90
2022/07/03 10:03:00;;;;;;;5.07;4.88;;;38.90;2.40;;;;;;5040643;28;20199;-89
2022/07/03 10:05:32;;;;;;;5.60;5.30;;;39.00;1.40;;;;;;5042513;28;20195;-89
2022/07/03 10:08:00;;;;;;;5.72;5.32;;;38.50;1.30;;;;;;5044305;28;20773;-90
2022/07/03 10:10:30;;;;;;;5.93;5.53;;;37.90;1.10;;;;;;5042242;28;20209;-88
2022/07/03 10:12:59;;;;;;;4.93;4.57;;;36.40;4.70;;;;;;5043076;28;20201;-89
2022/07/03 10:15:30;;;;;;;5.35;5.00;;;36.50;4.70;;;;;;5079029;28;20201;-89
2022/07/03 10:18:07;;;;;;;5.65;5.22;;;37.00;2.30;;;;;;5092706;28;20205;-92
2022/07/03 10:20:50;;;;;;;5.70;5.40;;;37.40;3.90;;;;;;5092169;28;20210;-92
2022/07/03 10:23:22;;;;;;;5.90;5.60;;;37.50;3.90;;;;;;5093004;28;20212;-92
2022/07/03 10:25:54;;;;;;;5.40;5.07;;;38.40;1.30;;;;;;5091643;28;20196;-92
2022/07/03 10:28:21;;;;;;;5.22;4.82;;;38.10;2.80;;;;;;5077820;28;20189;-91
2022/07/03 10:31:01;;;;;;;4.93;4.63;;;37.50;3.00;;;;;;5082301;28;20192;-91
2022/07/03 10:33:31;;;;;;;4.90;4.60;;;37.90;3.60;;;;;;5091633;28;20198;-92
2022/07/03 10:36:30;;;;;;;4.85;4.53;;;36.70;2.60;;;;;;5091768;28;20197;-91
2022/07/03 10:39:03;;;;;;;4.63;4.43;;;36.90;3.30;;;;;;5083672;28;20199;-91
2022/07/03 10:47:27;;;;;;;3.60;3.30;;;37.10;3.90;;;;;;5098537;28;20294;-87
2022/07/03 10:50:09;;;;;;;4.32;3.17;;;36.80;4.30;;;;;;5099621;28;20192;-87
2022/07/03 10:52:39;;;;;;;4.72;3.33;;;36.30;1.50;;;;;;5089189;28;20257;-87
2022/07/03 10:55:07;;;;;;;3.10;2.90;;;35.90;4.30;;;;;;5092028;28;20207;-87
2022/07/03 10:57:35;;;;;;;3.28;3.08;;;36.10;4.60;;;;;;5092361;28;20289;-87
2022/07/03 11:00:19;;;;;;;2.85;2.70;;;35.90;4.10;;;;;;5085339;28;20188;-88
2022/07/03 11:02:48;;;;;;;2.60;2.50;;;36.00;3.10;;;;;;5085017;28;20757;-88
2022/07/03 11:05:25;;;;;;;4.15;2.30;;;35.50;5.00;;;;;;5089941;28;20208;-87
2022/07/03 11:08:15;;;;;;;2.33;2.22;;;35.80;3.50;;;;;;5086013;28;20195;-89
2022/07/03 11:11:54;;;;;;;2.17;2.03;;;35.40;4.20;;;;;;5092605;28;20719;-87
2022/07/03 11:13:34;;;;;;;1.80;1.70;;;34.50;9.20;;;;;;5085333;28;20236;-88
2022/07/03 11:16:04;;;;;;;4.18;1.50;;;33.90;5.20;;;;;;5080771;28;20892;-88
2022/07/03 11:18:33;;;;;;;2.42;1.70;;;32.80;5.90;;;;;;5079930;28;20254;-88
2022/07/03 11:21:32;;;;;;;1.60;1.50;;;32.30;10.00;;;;;;5088282;28;20212;-86
2022/07/03 11:24:29;;;;;;;4.10;1.50;;;32.10;11.70;;;;;;5087099;28;20203;-87
2022/07/03 11:27:19;;;;;;;1.45;1.15;;;31.70;7.80;;;;;;5080867;28;20204;-87
2022/07/03 11:29:54;;;;;;;1.35;1.25;;;31.60;8.60;;;;;;5084036;28;20283;-86
2022/07/03 11:32:44;;;;;;;1.90;1.70;;;31.50;8.60;;;;;;5085187;28;20199;-87
2022/07/03 11:35:48;;;;;;;1.60;1.50;;;31.40;6.30;;;;;;5000292;28;20202;-86
2022/07/03 11:38:29;;;;;;;1.40;1.30;;;31.20;8.60;;;;;;4999155;28;20694;-87
2022/07/03 11:41:02;;;;;;;1.58;1.48;;;31.10;7.50;;;;;;4993488;28;20231;-86
2022/07/03 11:43:51;;;;;;;3.95;1.50;;;31.00;9.20;;;;;;5005000;28;20218;-85
2022/07/03 11:46:19;;;;;;;1.33;1.23;;;30.90;7.50;;;;;;5001267;28;20203;-87
2022/07/03 11:48:46;;;;;;;4.30;3.33;;;30.90;10.60;;;;;;5006003;28;20203;-87
2022/07/03 11:51:17;;;;;;;8.90;3.33;;;30.90;10.10;;;;;;5005765;28;20216;-87
2022/07/03 11:53:44;;;;;;;6.35;3.35;;;30.80;7.50;;;;;;4997712;28;20979;-88
2022/07/03 11:56:18;;;;;;;3.63;1.95;;;30.70;8.80;;;;;;4986539;28;20245;-87
2022/07/03 11:58:54;;;;;;;1.10;1.10;;;30.70;8.80;;;;;;5004577;28;20207;-88
2022/07/03 12:01:36;;;;;;;1.80;1.70;;;30.60;7.30;;;;;;5002587;28;20218;-90
2022/07/03 12:04:13;;;;;;;2.60;2.15;;;30.80;8.60;;;;;;5006763;28;20428;-89
2022/07/03 12:06:43;;;;;;;2.00;1.40;;;30.90;11.80;;;;;;5004750;28;20195;-88
2022/07/03 12:09:19;;;;;;;2.95;1.30;;;30.90;11.10;;;;;;5010020;28;20925;-85
2022/07/03 12:12:00;;;;;;;2.70;2.00;;;31.00;8.50;;;;;;5033866;28;21588;-86
2022/07/03 12:14:43;;;;;;;2.90;1.67;;;30.90;9.00;;;;;;5086324;28;20191;-86
2022/07/03 12:17:34;;;;;;;3.65;1.50;;;30.80;8.20;;;;;;5085919;28;20192;-84
2022/07/03 12:20:02;;;;;;;1.15;1.10;;;30.60;8.80;;;;;;5087585;28;20195;-85
2022/07/03 12:22:31;;;;;;;3.58;1.45;;;30.60;7.30;;;;;;5087604;28;20611;-86
2022/07/03 12:25:01;;;;;;;1.42;1.33;;;30.40;9.80;;;;;;5090765;28;20192;-86
2022/07/03 12:27:44;;;;;;;2.00;1.52;;;30.40;8.90;;;;;;5084026;28;20550;-89
2022/07/03 12:30:28;;;;;;;1.42;1.30;;;30.10;9.70;;;;;;5087620;28;20193;-86
2022/07/03 12:32:59;;;;;;;2.22;1.40;;;30.10;8.90;;;;;;5089506;28;20207;-89
2022/07/03 12:36:02;;;;;;;1.30;1.20;;;30.20;10.60;;;;;;5081714;28;20242;-86
2022/07/03 12:38:33;;;;;;;1.92;1.52;;;30.40;10.60;;;;;;5081291;28;20211;-86
2022/07/03 12:41:06;;;;;;;1.40;1.30;;;30.40;9.20;;;;;;5086401;28;20322;-87
2022/07/03 12:43:39;;;;;;;2.65;1.80;;;30.50;9.80;;;;;;5088086;28;20203;-87
2022/07/03 12:46:26;;;;;;;4.68;1.70;;;30.60;11.10;;;;;;5088464;28;20196;-88
2022/07/03 12:48:54;;;;;;;2.05;1.90;;;30.40;10.10;;;;;;5086245;28;20196;-88
2022/07/03 12:51:54;;;;;;;5.13;1.80;;;30.50;10.40;;;;;;5093951;28;20225;-89
2022/07/03 12:54:32;;;;;;;2.53;2.33;;;30.40;10.40;;;;;;5090386;28;20306;-88
2022/07/03 13:00:12;;;;;;;1.40;1.30;;;30.20;9.20;;;;;;5087994;28;20222;-88
2022/07/03 13:02:42;;;;;;;3.00;1.60;;;30.00;9.50;;;;;;5091039;28;20216;-88
2022/07/03 13:05:26;;;;;;;2.13;1.60;;;30.10;9.40;;;;;;5086080;28;20200;-88
2022/07/03 13:07:54;;;;;;;1.35;1.25;;;30.00;10.70;;;;;;5087744;28;20204;-88
2022/07/03 13:10:24;;;;;;;2.47;1.80;;;30.10;11.80;;;;;;5085945;28;20200;-89
2022/07/03 13:12:54;;;;;;;1.73;1.58;;;30.30;9.10;;;;;;5084611;28;20200;-89
2022/07/03 13:15:26;;;;;;;3.10;2.63;;;30.40;9.60;;;;;;5086620;28;20230;-88
2022/07/03 13:18:00;;;;;;;3.30;1.60;;;30.40;9.60;;;;;;5090560;28;20283;-89
2022/07/03 13:20:31;;;;;;;2.42;1.60;;;30.10;9.20;;;;;;5087984;28;20192;-88
2022/07/03 13:23:00;;;;;;;2.03;1.60;;;30.10;10.00;;;;;;5082088;28;20298;-87
2022/07/03 13:25:38;;;;;;;1.73;1.50;;;30.30;11.60;;;;;;5087169;28;20286;-87
2022/07/03 13:28:22;;;;;;;3.60;1.85;;;30.40;10.40;;;;;;5087917;28;20197;-88
2022/07/03 13:30:50;;;;;;;3.65;2.50;;;30.30;10.40;;;;;;5088300;28;20205;-87
2022/07/03 13:33:17;;;;;;;5.90;2.92;;;30.30;10.10;;;;;;5095287;28;20188;-85
2022/07/03 13:35:46;;;;;;;5.15;3.17;;;30.40;11.60;;;;;;5085374;28;20207;-86
2022/07/03 13:38:54;;;;;;;2.45;1.50;;;30.50;10.40;;;;;;5087157;28;20199;-86
2022/07/03 13:41:29;;;;;;;1.88;1.50;;;30.50;9.50;;;;;;5091136;28;20280;-87
2022/07/03 13:43:56;;;;;;;1.50;1.40;;;30.40;10.30;;;;;;5092791;28;20192;-87
2022/07/03 13:46:25;;;;;;;1.60;1.50;;;30.40;10.60;;;;;;5085845;28;20200;-87